sensor_id;sensor_type;location;lat;lon;timestamp;P1;durP1;ratioP1;P2;durP2;ratioP2
43883;SDS011;71973;52.018;5.810;2023-11-18T00:00:25;4.07;;;3.35;;
43883;SDS011;71973;52.018;5.810;2023-11-18T00:02:51;4.78;;;3.40;;
43883;SDS011;71973;52.018;5.810;2023-11-18T00:05:17;5.18;;;3.63;;
43883;SDS011;71973;52.018;5.810;2023-11-18T00:07:43;4.55;;;3.53;;
43883;SDS011;71973;52.018;5.810;2023-11-18T00:10:10;6.82;;;3.60;;
43883;SDS011;71973;52.018;5.810;2023-11-18T00:12:36;6.15;;;3.75;;
43883;SDS011;71973;52.018;5.810;2023-11-18T00:15:04;7.13;;;3.92;;
43883;SDS011;71973;52.018;5.810;2023-11-18T00:17:33;5.72;;;3.85;;
43883;SDS011;71973;52.018;5.810;2023-11-18T00:19:59;7.38;;;4.13;;
43883;SDS011;71973;52.018;5.810;2023-11-18T00:22:25;4.65;;;3.83;;
43883;SDS011;71973;52.018;5.810;2023-11-18T00:24:52;4.47;;;3.53;;
43883;SDS011;71973;52.018;5.810;2023-11-18T00:27:20;4.53;;;3.75;;
43883;SDS011;71973;52.018;5.810;2023-11-18T00:29:47;5.43;;;4.03;;
43883;SDS011;71973;52.018;5.810;2023-11-18T00:32:13;5.43;;;3.95;;
43883;SDS011;71973;52.018;5.810;2023-11-18T00:34:39;5.47;;;3.85;;
43883;SDS011;71973;52.018;5.810;2023-11-18T00:37:05;7.28;;;4.32;;
43883;SDS011;71973;52.018;5.810;2023-11-18T00:39:32;6.00;;;4.00;;
43883;SDS011;71973;52.018;5.810;2023-11-18T00:41:58;6.35;;;4.55;;
43883;SDS011;71973;52.018;5.810;2023-11-18T00:44:24;5.55;;;3.95;;
43883;SDS011;71973;52.018;5.810;2023-11-18T00:46:50;5.03;;;3.70;;
43883;SDS011;71973;52.018;5.810;2023-11-18T00:49:17;4.60;;;3.45;;
43883;SDS011;71973;52.018;5.810;2023-11-18T00:51:43;4.47;;;3.83;;
43883;SDS011;71973;52.018;5.810;2023-11-18T00:54:08;4.45;;;3.90;;
43883;SDS011;71973;52.018;5.810;2023-11-18T00:56:34;6.75;;;4.03;;
43883;SDS011;71973;52.018;5.810;2023-11-18T00:59:00;4.85;;;3.67;;
43883;SDS011;71973;52.018;5.810;2023-11-18T01:01:27;4.55;;;3.72;;
43883;SDS011;71973;52.018;5.810;2023-11-18T01:03:53;5.55;;;3.53;;
43883;SDS011;71973;52.018;5.810;2023-11-18T01:06:19;5.95;;;4.32;;
43883;SDS011;71973;52.018;5.810;2023-11-18T01:08:45;6.60;;;3.97;;
43883;SDS011;71973;52.018;5.810;2023-11-18T01:11:17;5.57;;;3.97;;
43883;SDS011;71973;52.018;5.810;2023-11-18T01:13:44;4.28;;;3.65;;
43883;SDS011;71973;52.018;5.810;2023-11-18T01:18:36;4.90;;;3.92;;
43883;SDS011;71973;52.018;5.810;2023-11-18T01:21:02;6.32;;;3.72;;
43883;SDS011;71973;52.018;5.810;2023-11-18T01:23:28;5.55;;;4.30;;
43883;SDS011;71973;52.018;5.810;2023-11-18T01:25:54;6.32;;;4.03;;
43883;SDS011;71973;52.018;5.810;2023-11-18T01:30:47;6.85;;;4.13;;
43883;SDS011;71973;52.018;5.810;2023-11-18T01:33:13;5.13;;;4.10;;
43883;SDS011;71973;52.018;5.810;2023-11-18T01:35:39;7.03;;;3.90;;
43883;SDS011;71973;52.018;5.810;2023-11-18T01:38:06;4.97;;;3.85;;
43883;SDS011;71973;52.018;5.810;2023-11-18T01:40:33;5.68;;;4.45;;
43883;SDS011;71973;52.018;5.810;2023-11-18T01:42:59;5.75;;;3.90;;
43883;SDS011;71973;52.018;5.810;2023-11-18T01:45:25;5.28;;;3.95;;
43883;SDS011;71973;52.018;5.810;2023-11-18T01:47:52;5.30;;;4.07;;
43883;SDS011;71973;52.018;5.810;2023-11-18T01:50:18;5.28;;;4.22;;
43883;SDS011;71973;52.018;5.810;2023-11-18T01:52:45;6.63;;;4.18;;
43883;SDS011;71973;52.018;5.810;2023-11-18T01:55:12;6.55;;;4.57;;
43883;SDS011;71973;52.018;5.810;2023-11-18T01:57:38;5.47;;;4.30;;
43883;SDS011;71973;52.018;5.810;2023-11-18T02:00:08;7.43;;;4.20;;
43883;SDS011;71973;52.018;5.810;2023-11-18T02:02:36;7.35;;;4.05;;
43883;SDS011;71973;52.018;5.810;2023-11-18T02:05:03;4.75;;;3.97;;
43883;SDS011;71973;52.018;5.810;2023-11-18T02:07:31;4.97;;;3.80;;
43883;SDS011;71973;52.018;5.810;2023-11-18T02:09:58;6.03;;;4.28;;
43883;SDS011;71973;52.018;5.810;2023-11-18T02:14:53;4.88;;;3.95;;
43883;SDS011;71973;52.018;5.810;2023-11-18T02:17:21;8.23;;;4.30;;
43883;SDS011;71973;52.018;5.810;2023-11-18T02:19:52;5.10;;;4.30;;
43883;SDS011;71973;52.018;5.810;2023-11-18T02:22:18;5.50;;;4.18;;
43883;SDS011;71973;52.018;5.810;2023-11-18T02:24:46;4.80;;;4.03;;
43883;SDS011;71973;52.018;5.810;2023-11-18T02:27:13;4.95;;;3.90;;
43883;SDS011;71973;52.018;5.810;2023-11-18T02:29:40;5.25;;;4.05;;
43883;SDS011;71973;52.018;5.810;2023-11-18T02:32:13;4.97;;;3.55;;
43883;SDS011;71973;52.018;5.810;2023-11-18T02:34:41;8.23;;;4.78;;
43883;SDS011;71973;52.018;5.810;2023-11-18T02:37:13;7.10;;;4.63;;
43883;SDS011;71973;52.018;5.810;2023-11-18T02:39:39;5.45;;;4.20;;
43883;SDS011;71973;52.018;5.810;2023-11-18T02:42:07;5.38;;;4.32;;
43883;SDS011;71973;52.018;5.810;2023-11-18T02:44:37;7.25;;;4.32;;
43883;SDS011;71973;52.018;5.810;2023-11-18T02:47:03;6.80;;;4.53;;
43883;SDS011;71973;52.018;5.810;2023-11-18T02:49:30;5.03;;;3.60;;
43883;SDS011;71973;52.018;5.810;2023-11-18T02:51:56;5.20;;;4.28;;
43883;SDS011;71973;52.018;5.810;2023-11-18T02:54:22;5.63;;;4.47;;
43883;SDS011;71973;52.018;5.810;2023-11-18T02:56:48;8.13;;;5.18;;
43883;SDS011;71973;52.018;5.810;2023-11-18T02:59:15;5.32;;;4.47;;
43883;SDS011;71973;52.018;5.810;2023-11-18T03:01:42;4.78;;;4.05;;
43883;SDS011;71973;52.018;5.810;2023-11-18T03:04:08;6.30;;;4.63;;
43883;SDS011;71973;52.018;5.810;2023-11-18T03:06:35;5.43;;;4.22;;
43883;SDS011;71973;52.018;5.810;2023-11-18T03:09:01;5.55;;;4.53;;
43883;SDS011;71973;52.018;5.810;2023-11-18T03:11:32;5.95;;;4.55;;
43883;SDS011;71973;52.018;5.810;2023-11-18T03:13:58;6.13;;;4.70;;
43883;SDS011;71973;52.018;5.810;2023-11-18T03:16:24;4.55;;;3.90;;
43883;SDS011;71973;52.018;5.810;2023-11-18T03:18:50;5.55;;;4.30;;
43883;SDS011;71973;52.018;5.810;2023-11-18T03:21:17;5.90;;;4.38;;
43883;SDS011;71973;52.018;5.810;2023-11-18T03:23:46;6.85;;;4.90;;
43883;SDS011;71973;52.018;5.810;2023-11-18T03:26:12;5.90;;;4.30;;
43883;SDS011;71973;52.018;5.810;2023-11-18T03:28:38;5.93;;;4.78;;
43883;SDS011;71973;52.018;5.810;2023-11-18T03:31:04;5.70;;;4.30;;
43883;SDS011;71973;52.018;5.810;2023-11-18T03:33:30;5.43;;;4.22;;
43883;SDS011;71973;52.018;5.810;2023-11-18T03:35:56;6.05;;;4.35;;
43883;SDS011;71973;52.018;5.810;2023-11-18T03:38:23;6.07;;;4.70;;
43883;SDS011;71973;52.018;5.810;2023-11-18T03:40:49;7.28;;;5.00;;
43883;SDS011;71973;52.018;5.810;2023-11-18T03:43:17;5.95;;;4.82;;
43883;SDS011;71973;52.018;5.810;2023-11-18T03:45:43;6.82;;;5.10;;
43883;SDS011;71973;52.018;5.810;2023-11-18T03:48:09;5.88;;;4.70;;
43883;SDS011;71973;52.018;5.810;2023-11-18T03:50:39;6.45;;;5.15;;
43883;SDS011;71973;52.018;5.810;2023-11-18T03:53:05;6.90;;;5.38;;
43883;SDS011;71973;52.018;5.810;2023-11-18T03:55:31;6.05;;;5.00;;
43883;SDS011;71973;52.018;5.810;2023-11-18T03:57:58;5.18;;;4.55;;
43883;SDS011;71973;52.018;5.810;2023-11-18T04:00:24;6.00;;;5.22;;
43883;SDS011;71973;52.018;5.810;2023-11-18T04:02:55;6.80;;;5.53;;
43883;SDS011;71973;52.018;5.810;2023-11-18T04:05:24;5.88;;;5.25;;
43883;SDS011;71973;52.018;5.810;2023-11-18T04:07:50;6.90;;;5.22;;
43883;SDS011;71973;52.018;5.810;2023-11-18T04:10:16;6.95;;;5.90;;
43883;SDS011;71973;52.018;5.810;2023-11-18T04:12:43;7.78;;;5.90;;
43883;SDS011;71973;52.018;5.810;2023-11-18T04:15:13;7.25;;;5.65;;
43883;SDS011;71973;52.018;5.810;2023-11-18T04:17:39;7.40;;;5.88;;
43883;SDS011;71973;52.018;5.810;2023-11-18T04:20:05;7.85;;;5.85;;
43883;SDS011;71973;52.018;5.810;2023-11-18T04:22:39;7.90;;;6.50;;
43883;SDS011;71973;52.018;5.810;2023-11-18T04:25:06;8.73;;;6.55;;
43883;SDS011;71973;52.018;5.810;2023-11-18T04:27:32;7.97;;;5.70;;
43883;SDS011;71973;52.018;5.810;2023-11-18T04:29:58;7.72;;;5.88;;
43883;SDS011;71973;52.018;5.810;2023-11-18T04:32:24;9.23;;;7.30;;
43883;SDS011;71973;52.018;5.810;2023-11-18T04:34:50;8.50;;;6.82;;
43883;SDS011;71973;52.018;5.810;2023-11-18T04:37:16;8.70;;;6.85;;
43883;SDS011;71973;52.018;5.810;2023-11-18T04:42:08;7.53;;;5.60;;
43883;SDS011;71973;52.018;5.810;2023-11-18T04:44:34;8.65;;;6.88;;
43883;SDS011;71973;52.018;5.810;2023-11-18T04:47:00;8.07;;;6.22;;
43883;SDS011;71973;52.018;5.810;2023-11-18T04:49:27;10.18;;;7.07;;
43883;SDS011;71973;52.018;5.810;2023-11-18T04:51:53;9.48;;;7.13;;
43883;SDS011;71973;52.018;5.810;2023-11-18T04:54:19;10.70;;;7.13;;
43883;SDS011;71973;52.018;5.810;2023-11-18T04:56:45;8.55;;;6.63;;
43883;SDS011;71973;52.018;5.810;2023-11-18T04:59:11;8.55;;;6.70;;
43883;SDS011;71973;52.018;5.810;2023-11-18T05:01:37;9.13;;;7.32;;
43883;SDS011;71973;52.018;5.810;2023-11-18T05:04:03;9.43;;;6.80;;
43883;SDS011;71973;52.018;5.810;2023-11-18T05:06:29;8.65;;;7.07;;
43883;SDS011;71973;52.018;5.810;2023-11-18T05:11:21;8.15;;;6.93;;
43883;SDS011;71973;52.018;5.810;2023-11-18T05:13:47;8.68;;;6.57;;
43883;SDS011;71973;52.018;5.810;2023-11-18T05:16:14;10.05;;;7.32;;
43883;SDS011;71973;52.018;5.810;2023-11-18T05:18:40;10.00;;;7.72;;
43883;SDS011;71973;52.018;5.810;2023-11-18T05:21:06;9.48;;;6.60;;
43883;SDS011;71973;52.018;5.810;2023-11-18T05:23:35;9.73;;;7.28;;
43883;SDS011;71973;52.018;5.810;2023-11-18T05:26:01;10.35;;;7.35;;
43883;SDS011;71973;52.018;5.810;2023-11-18T05:28:30;8.48;;;7.18;;
43883;SDS011;71973;52.018;5.810;2023-11-18T05:30:56;8.52;;;6.97;;
43883;SDS011;71973;52.018;5.810;2023-11-18T05:35:49;10.15;;;7.05;;
43883;SDS011;71973;52.018;5.810;2023-11-18T05:38:15;9.70;;;6.72;;
43883;SDS011;71973;52.018;5.810;2023-11-18T05:40:47;8.15;;;6.97;;
43883;SDS011;71973;52.018;5.810;2023-11-18T05:43:25;10.05;;;7.07;;
43883;SDS011;71973;52.018;5.810;2023-11-18T05:45:54;8.07;;;6.30;;
43883;SDS011;71973;52.018;5.810;2023-11-18T05:48:39;9.07;;;6.60;;
43883;SDS011;71973;52.018;5.810;2023-11-18T05:51:05;8.68;;;6.57;;
43883;SDS011;71973;52.018;5.810;2023-11-18T05:53:31;8.32;;;6.53;;
43883;SDS011;71973;52.018;5.810;2023-11-18T05:55:57;8.80;;;7.10;;
43883;SDS011;71973;52.018;5.810;2023-11-18T05:58:23;8.68;;;7.07;;
43883;SDS011;71973;52.018;5.810;2023-11-18T06:00:49;8.40;;;6.82;;
43883;SDS011;71973;52.018;5.810;2023-11-18T06:03:15;9.32;;;7.07;;
43883;SDS011;71973;52.018;5.810;2023-11-18T06:05:43;8.30;;;6.45;;
43883;SDS011;71973;52.018;5.810;2023-11-18T06:08:09;8.85;;;6.55;;
43883;SDS011;71973;52.018;5.810;2023-11-18T06:10:36;8.38;;;6.93;;
43883;SDS011;71973;52.018;5.810;2023-11-18T06:13:03;9.82;;;7.25;;
43883;SDS011;71973;52.018;5.810;2023-11-18T06:15:29;8.45;;;6.63;;
43883;SDS011;71973;52.018;5.810;2023-11-18T06:17:55;8.38;;;6.65;;
43883;SDS011;71973;52.018;5.810;2023-11-18T06:20:21;7.97;;;6.40;;
43883;SDS011;71973;52.018;5.810;2023-11-18T06:22:48;10.23;;;6.75;;
43883;SDS011;71973;52.018;5.810;2023-11-18T06:25:14;7.18;;;6.35;;
43883;SDS011;71973;52.018;5.810;2023-11-18T06:30:10;6.90;;;5.85;;
43883;SDS011;71973;52.018;5.810;2023-11-18T06:32:37;7.72;;;6.45;;
43883;SDS011;71973;52.018;5.810;2023-11-18T06:35:04;7.00;;;5.40;;
43883;SDS011;71973;52.018;5.810;2023-11-18T06:39:56;7.82;;;5.95;;
43883;SDS011;71973;52.018;5.810;2023-11-18T06:42:22;6.57;;;5.13;;
43883;SDS011;71973;52.018;5.810;2023-11-18T06:44:49;7.38;;;6.03;;
43883;SDS011;71973;52.018;5.810;2023-11-18T06:47:15;6.88;;;5.32;;
43883;SDS011;71973;52.018;5.810;2023-11-18T06:49:44;10.98;;;5.78;;
43883;SDS011;71973;52.018;5.810;2023-11-18T06:52:12;7.63;;;5.63;;
43883;SDS011;71973;52.018;5.810;2023-11-18T06:54:40;7.30;;;6.05;;
43883;SDS011;71973;52.018;5.810;2023-11-18T06:57:06;7.13;;;5.65;;
43883;SDS011;71973;52.018;5.810;2023-11-18T06:59:32;7.15;;;5.95;;
43883;SDS011;71973;52.018;5.810;2023-11-18T07:01:59;7.38;;;5.70;;
43883;SDS011;71973;52.018;5.810;2023-11-18T07:04:25;7.00;;;5.57;;
43883;SDS011;71973;52.018;5.810;2023-11-18T07:06:51;6.47;;;5.07;;
43883;SDS011;71973;52.018;5.810;2023-11-18T07:09:17;6.88;;;4.97;;
43883;SDS011;71973;52.018;5.810;2023-11-18T07:11:45;6.90;;;5.32;;
43883;SDS011;71973;52.018;5.810;2023-11-18T07:16:39;8.60;;;5.82;;
43883;SDS011;71973;52.018;5.810;2023-11-18T07:19:05;18.30;;;5.97;;
43883;SDS011;71973;52.018;5.810;2023-11-18T07:21:31;8.32;;;5.50;;
43883;SDS011;71973;52.018;5.810;2023-11-18T07:23:58;9.48;;;5.20;;
43883;SDS011;71973;52.018;5.810;2023-11-18T07:26:24;6.80;;;4.93;;
43883;SDS011;71973;52.018;5.810;2023-11-18T07:28:50;11.43;;;5.13;;
43883;SDS011;71973;52.018;5.810;2023-11-18T07:31:16;7.95;;;5.00;;
43883;SDS011;71973;52.018;5.810;2023-11-18T07:33:44;6.88;;;5.07;;
43883;SDS011;71973;52.018;5.810;2023-11-18T07:36:14;6.28;;;4.57;;
43883;SDS011;71973;52.018;5.810;2023-11-18T07:38:40;11.40;;;5.72;;
43883;SDS011;71973;52.018;5.810;2023-11-18T07:41:06;11.27;;;5.10;;
43883;SDS011;71973;52.018;5.810;2023-11-18T07:43:33;9.50;;;4.53;;
43883;SDS011;71973;52.018;5.810;2023-11-18T07:46:01;8.32;;;4.75;;
43883;SDS011;71973;52.018;5.810;2023-11-18T07:48:27;5.93;;;4.40;;
43883;SDS011;71973;52.018;5.810;2023-11-18T07:50:56;11.35;;;4.85;;
43883;SDS011;71973;52.018;5.810;2023-11-18T07:53:22;6.95;;;4.43;;
43883;SDS011;71973;52.018;5.810;2023-11-18T07:55:48;7.45;;;5.00;;
43883;SDS011;71973;52.018;5.810;2023-11-18T07:58:15;6.72;;;4.55;;
43883;SDS011;71973;52.018;5.810;2023-11-18T08:00:43;9.02;;;4.65;;
43883;SDS011;71973;52.018;5.810;2023-11-18T08:03:13;8.15;;;5.20;;
43883;SDS011;71973;52.018;5.810;2023-11-18T08:05:43;7.22;;;4.05;;
43883;SDS011;71973;52.018;5.810;2023-11-18T08:08:09;8.98;;;4.68;;
43883;SDS011;71973;52.018;5.810;2023-11-18T08:10:38;9.40;;;4.68;;
43883;SDS011;71973;52.018;5.810;2023-11-18T08:15:32;6.93;;;4.93;;
43883;SDS011;71973;52.018;5.810;2023-11-18T08:20:25;6.75;;;4.60;;
43883;SDS011;71973;52.018;5.810;2023-11-18T08:22:51;9.48;;;4.60;;
43883;SDS011;71973;52.018;5.810;2023-11-18T08:25:18;6.43;;;4.10;;
43883;SDS011;71973;52.018;5.810;2023-11-18T08:27:44;9.45;;;4.40;;
43883;SDS011;71973;52.018;5.810;2023-11-18T08:30:13;7.05;;;3.90;;
43883;SDS011;71973;52.018;5.810;2023-11-18T08:32:39;6.38;;;4.00;;
43883;SDS011;71973;52.018;5.810;2023-11-18T08:35:08;7.35;;;3.97;;
43883;SDS011;71973;52.018;5.810;2023-11-18T08:37:35;5.35;;;3.58;;
43883;SDS011;71973;52.018;5.810;2023-11-18T08:40:02;6.65;;;3.92;;
43883;SDS011;71973;52.018;5.810;2023-11-18T08:44:56;4.13;;;3.50;;
43883;SDS011;71973;52.018;5.810;2023-11-18T08:47:24;5.10;;;3.72;;
43883;SDS011;71973;52.018;5.810;2023-11-18T08:49:50;6.53;;;3.20;;
43883;SDS011;71973;52.018;5.810;2023-11-18T08:52:15;5.15;;;4.07;;
43883;SDS011;71973;52.018;5.810;2023-11-18T08:54:43;4.63;;;3.15;;
43883;SDS011;71973;52.018;5.810;2023-11-18T08:57:28;4.82;;;3.45;;
43883;SDS011;71973;52.018;5.810;2023-11-18T09:00:13;5.00;;;3.42;;
43883;SDS011;71973;52.018;5.810;2023-11-18T09:02:59;5.53;;;3.42;;
43883;SDS011;71973;52.018;5.810;2023-11-18T09:07:56;4.45;;;3.30;;
43883;SDS011;71973;52.018;5.810;2023-11-18T09:10:22;6.90;;;3.33;;
43883;SDS011;71973;52.018;5.810;2023-11-18T09:12:49;5.50;;;3.08;;
43883;SDS011;71973;52.018;5.810;2023-11-18T09:15:15;6.00;;;3.10;;
43883;SDS011;71973;52.018;5.810;2023-11-18T09:17:47;6.10;;;3.17;;
43883;SDS011;71973;52.018;5.810;2023-11-18T09:20:13;6.93;;;3.40;;
43883;SDS011;71973;52.018;5.810;2023-11-18T09:22:45;8.02;;;3.15;;
43883;SDS011;71973;52.018;5.810;2023-11-18T09:25:11;5.93;;;3.17;;
43883;SDS011;71973;52.018;5.810;2023-11-18T09:27:37;4.60;;;3.05;;
43883;SDS011;71973;52.018;5.810;2023-11-18T09:30:05;5.63;;;3.17;;
43883;SDS011;71973;52.018;5.810;2023-11-18T09:32:42;4.90;;;3.22;;
43883;SDS011;71973;52.018;5.810;2023-11-18T09:35:08;4.43;;;3.35;;
43883;SDS011;71973;52.018;5.810;2023-11-18T09:37:37;6.20;;;2.80;;
43883;SDS011;71973;52.018;5.810;2023-11-18T09:40:03;5.57;;;3.10;;
43883;SDS011;71973;52.018;5.810;2023-11-18T09:42:36;6.53;;;3.25;;
43883;SDS011;71973;52.018;5.810;2023-11-18T09:45:04;5.53;;;3.38;;
43883;SDS011;71973;52.018;5.810;2023-11-18T09:47:32;4.70;;;3.17;;
43883;SDS011;71973;52.018;5.810;2023-11-18T09:49:59;4.43;;;3.05;;
43883;SDS011;71973;52.018;5.810;2023-11-18T09:52:27;6.00;;;3.45;;
43883;SDS011;71973;52.018;5.810;2023-11-18T09:55:03;7.75;;;3.40;;
43883;SDS011;71973;52.018;5.810;2023-11-18T09:57:39;5.25;;;3.50;;
43883;SDS011;71973;52.018;5.810;2023-11-18T10:02:50;5.45;;;3.08;;
43883;SDS011;71973;52.018;5.810;2023-11-18T10:05:17;6.20;;;3.55;;
43883;SDS011;71973;52.018;5.810;2023-11-18T10:07:46;4.53;;;3.15;;
43883;SDS011;71973;52.018;5.810;2023-11-18T10:10:12;4.85;;;3.38;;
43883;SDS011;71973;52.018;5.810;2023-11-18T10:12:45;6.05;;;3.50;;
43883;SDS011;71973;52.018;5.810;2023-11-18T10:15:11;6.13;;;3.53;;
43883;SDS011;71973;52.018;5.810;2023-11-18T10:17:42;5.32;;;3.50;;
43883;SDS011;71973;52.018;5.810;2023-11-18T10:20:48;4.40;;;3.30;;
43883;SDS011;71973;52.018;5.810;2023-11-18T10:23:18;6.20;;;3.73;;
43883;SDS011;71973;52.018;5.810;2023-11-18T10:25:51;4.38;;;3.20;;
43883;SDS011;71973;52.018;5.810;2023-11-18T10:28:24;5.00;;;2.63;;
43883;SDS011;71973;52.018;5.810;2023-11-18T10:30:52;4.82;;;3.30;;
43883;SDS011;71973;52.018;5.810;2023-11-18T10:33:18;6.68;;;3.30;;
43883;SDS011;71973;52.018;5.810;2023-11-18T10:35:48;6.07;;;3.17;;
43883;SDS011;71973;52.018;5.810;2023-11-18T10:38:16;4.35;;;3.05;;
43883;SDS011;71973;52.018;5.810;2023-11-18T10:40:42;5.15;;;3.38;;
43883;SDS011;71973;52.018;5.810;2023-11-18T10:43:09;4.72;;;3.22;;
43883;SDS011;71973;52.018;5.810;2023-11-18T10:45:35;6.47;;;3.67;;
43883;SDS011;71973;52.018;5.810;2023-11-18T10:48:07;4.68;;;3.30;;
43883;SDS011;71973;52.018;5.810;2023-11-18T10:50:33;5.13;;;3.05;;
43883;SDS011;71973;52.018;5.810;2023-11-18T10:53:02;4.80;;;3.08;;
43883;SDS011;71973;52.018;5.810;2023-11-18T10:55:39;5.10;;;3.53;;
43883;SDS011;71973;52.018;5.810;2023-11-18T10:58:06;4.45;;;3.22;;
43883;SDS011;71973;52.018;5.810;2023-11-18T11:00:47;5.85;;;3.25;;
43883;SDS011;71973;52.018;5.810;2023-11-18T11:03:14;3.33;;;2.53;;
43883;SDS011;71973;52.018;5.810;2023-11-18T11:05:40;5.20;;;2.90;;
43883;SDS011;71973;52.018;5.810;2023-11-18T11:08:08;4.90;;;2.88;;
43883;SDS011;71973;52.018;5.810;2023-11-18T11:10:38;5.80;;;2.80;;
43883;SDS011;71973;52.018;5.810;2023-11-18T11:13:06;5.60;;;2.60;;
43883;SDS011;71973;52.018;5.810;2023-11-18T11:15:33;5.15;;;2.90;;
43883;SDS011;71973;52.018;5.810;2023-11-18T11:18:05;4.47;;;2.53;;
43883;SDS011;71973;52.018;5.810;2023-11-18T11:20:36;5.63;;;2.70;;
43883;SDS011;71973;52.018;5.810;2023-11-18T11:25:55;5.28;;;2.72;;
43883;SDS011;71973;52.018;5.810;2023-11-18T11:28:27;6.32;;;2.78;;
43883;SDS011;71973;52.018;5.810;2023-11-18T11:33:39;4.20;;;2.63;;
43883;SDS011;71973;52.018;5.810;2023-11-18T11:36:07;7.25;;;2.92;;
43883;SDS011;71973;52.018;5.810;2023-11-18T11:38:36;4.90;;;2.40;;
43883;SDS011;71973;52.018;5.810;2023-11-18T11:41:03;3.38;;;2.47;;
43883;SDS011;71973;52.018;5.810;2023-11-18T11:43:30;5.30;;;2.55;;
43883;SDS011;71973;52.018;5.810;2023-11-18T11:45:59;4.40;;;2.70;;
43883;SDS011;71973;52.018;5.810;2023-11-18T11:48:28;5.32;;;2.53;;
43883;SDS011;71973;52.018;5.810;2023-11-18T11:51:44;4.65;;;2.42;;
43883;SDS011;71973;52.018;5.810;2023-11-18T11:54:11;4.40;;;2.47;;
43883;SDS011;71973;52.018;5.810;2023-11-18T11:56:43;4.78;;;2.38;;
43883;SDS011;71973;52.018;5.810;2023-11-18T11:59:15;5.28;;;2.28;;
43883;SDS011;71973;52.018;5.810;2023-11-18T12:01:41;5.70;;;2.53;;
43883;SDS011;71973;52.018;5.810;2023-11-18T12:04:12;4.32;;;2.17;;
43883;SDS011;71973;52.018;5.810;2023-11-18T12:06:46;4.05;;;2.30;;
43883;SDS011;71973;52.018;5.810;2023-11-18T12:09:13;2.97;;;1.90;;
43883;SDS011;71973;52.018;5.810;2023-11-18T12:11:45;3.63;;;2.15;;
43883;SDS011;71973;52.018;5.810;2023-11-18T12:14:13;3.78;;;2.25;;
43883;SDS011;71973;52.018;5.810;2023-11-18T12:16:58;3.55;;;2.05;;
43883;SDS011;71973;52.018;5.810;2023-11-18T12:19:35;8.32;;;2.10;;
43883;SDS011;71973;52.018;5.810;2023-11-18T12:22:09;5.78;;;1.92;;
43883;SDS011;71973;52.018;5.810;2023-11-18T12:24:43;4.15;;;2.15;;
43883;SDS011;71973;52.018;5.810;2023-11-18T12:27:09;7.07;;;1.90;;
43883;SDS011;71973;52.018;5.810;2023-11-18T12:29:41;5.07;;;2.40;;
43883;SDS011;71973;52.018;5.810;2023-11-18T12:32:10;7.15;;;2.47;;
43883;SDS011;71973;52.018;5.810;2023-11-18T12:34:51;4.07;;;2.00;;
43883;SDS011;71973;52.018;5.810;2023-11-18T12:37:31;4.47;;;1.85;;
43883;SDS011;71973;52.018;5.810;2023-11-18T12:40:09;4.82;;;1.75;;
43883;SDS011;71973;52.018;5.810;2023-11-18T12:45:21;6.82;;;3.25;;
43883;SDS011;71973;52.018;5.810;2023-11-18T12:47:53;6.22;;;2.10;;
43883;SDS011;71973;52.018;5.810;2023-11-18T12:50:23;5.50;;;2.15;;
43883;SDS011;71973;52.018;5.810;2023-11-18T12:52:52;4.75;;;1.65;;
43883;SDS011;71973;52.018;5.810;2023-11-18T12:55:19;4.88;;;1.60;;
43883;SDS011;71973;52.018;5.810;2023-11-18T13:00:11;4.78;;;2.00;;
43883;SDS011;71973;52.018;5.810;2023-11-18T13:02:37;4.88;;;1.85;;
43883;SDS011;71973;52.018;5.810;2023-11-18T13:05:07;3.58;;;1.70;;
43883;SDS011;71973;52.018;5.810;2023-11-18T13:07:34;2.70;;;1.60;;
43883;SDS011;71973;52.018;5.810;2023-11-18T13:10:01;4.15;;;1.50;;
43883;SDS011;71973;52.018;5.810;2023-11-18T13:12:29;3.58;;;1.50;;
43883;SDS011;71973;52.018;5.810;2023-11-18T13:14:55;5.93;;;1.83;;
43883;SDS011;71973;52.018;5.810;2023-11-18T13:17:22;4.22;;;1.50;;
43883;SDS011;71973;52.018;5.810;2023-11-18T13:19:48;2.05;;;1.23;;
43883;SDS011;71973;52.018;5.810;2023-11-18T13:22:19;2.10;;;1.25;;
43883;SDS011;71973;52.018;5.810;2023-11-18T13:24:45;3.45;;;1.63;;
43883;SDS011;71973;52.018;5.810;2023-11-18T13:27:15;4.82;;;1.55;;
43883;SDS011;71973;52.018;5.810;2023-11-18T13:29:45;3.13;;;1.40;;
43883;SDS011;71973;52.018;5.810;2023-11-18T13:32:13;5.15;;;1.75;;
43883;SDS011;71973;52.018;5.810;2023-11-18T13:34:40;3.80;;;1.75;;
43883;SDS011;71973;52.018;5.810;2023-11-18T13:37:07;5.78;;;1.95;;
43883;SDS011;71973;52.018;5.810;2023-11-18T13:39:36;3.80;;;1.30;;
43883;SDS011;71973;52.018;5.810;2023-11-18T13:45:05;15.25;;;1.73;;
43883;SDS011;71973;52.018;5.810;2023-11-18T13:47:36;2.67;;;1.20;;
43883;SDS011;71973;52.018;5.810;2023-11-18T13:50:06;4.00;;;1.33;;
43883;SDS011;71973;52.018;5.810;2023-11-18T13:52:33;2.78;;;1.70;;
43883;SDS011;71973;52.018;5.810;2023-11-18T13:54:59;4.22;;;1.48;;
43883;SDS011;71973;52.018;5.810;2023-11-18T13:57:25;3.05;;;1.30;;
43883;SDS011;71973;52.018;5.810;2023-11-18T13:59:51;4.95;;;1.25;;
43883;SDS011;71973;52.018;5.810;2023-11-18T14:02:19;5.03;;;1.30;;
43883;SDS011;71973;52.018;5.810;2023-11-18T14:04:46;5.13;;;1.25;;
43883;SDS011;71973;52.018;5.810;2023-11-18T14:07:16;2.92;;;1.35;;
43883;SDS011;71973;52.018;5.810;2023-11-18T14:09:43;3.20;;;1.30;;
43883;SDS011;71973;52.018;5.810;2023-11-18T14:12:11;5.50;;;1.50;;
43883;SDS011;71973;52.018;5.810;2023-11-18T14:14:37;2.58;;;1.23;;
43883;SDS011;71973;52.018;5.810;2023-11-18T14:19:31;4.38;;;1.40;;
43883;SDS011;71973;52.018;5.810;2023-11-18T14:22:00;6.10;;;1.70;;
43883;SDS011;71973;52.018;5.810;2023-11-18T14:24:25;2.05;;;1.00;;
43883;SDS011;71973;52.018;5.810;2023-11-18T14:26:52;3.58;;;1.52;;
43883;SDS011;71973;52.018;5.810;2023-11-18T14:29:18;2.33;;;1.20;;
43883;SDS011;71973;52.018;5.810;2023-11-18T14:31:44;1.85;;;0.95;;
43883;SDS011;71973;52.018;5.810;2023-11-18T14:34:10;2.65;;;1.20;;
43883;SDS011;71973;52.018;5.810;2023-11-18T14:36:36;1.90;;;1.15;;
43883;SDS011;71973;52.018;5.810;2023-11-18T14:39:03;2.03;;;0.95;;
43883;SDS011;71973;52.018;5.810;2023-11-18T14:41:29;4.20;;;1.08;;
43883;SDS011;71973;52.018;5.810;2023-11-18T14:43:56;2.15;;;0.98;;
43883;SDS011;71973;52.018;5.810;2023-11-18T14:46:27;2.00;;;0.98;;
43883;SDS011;71973;52.018;5.810;2023-11-18T14:48:53;1.77;;;1.23;;
43883;SDS011;71973;52.018;5.810;2023-11-18T14:53:46;3.58;;;1.25;;
43883;SDS011;71973;52.018;5.810;2023-11-18T14:56:11;2.65;;;1.40;;
43883;SDS011;71973;52.018;5.810;2023-11-18T14:58:37;2.90;;;1.17;;
43883;SDS011;71973;52.018;5.810;2023-11-18T15:01:04;3.10;;;1.20;;
43883;SDS011;71973;52.018;5.810;2023-11-18T15:03:32;2.95;;;0.98;;
43883;SDS011;71973;52.018;5.810;2023-11-18T15:05:58;2.08;;;0.88;;
43883;SDS011;71973;52.018;5.810;2023-11-18T15:08:24;2.40;;;1.10;;
43883;SDS011;71973;52.018;5.810;2023-11-18T15:10:50;0.75;;;0.65;;
43883;SDS011;71973;52.018;5.810;2023-11-18T15:13:16;2.15;;;1.02;;
43883;SDS011;71973;52.018;5.810;2023-11-18T15:15:43;3.08;;;0.70;;
43883;SDS011;71973;52.018;5.810;2023-11-18T15:18:12;2.90;;;0.93;;
43883;SDS011;71973;52.018;5.810;2023-11-18T15:20:45;1.60;;;0.80;;
43883;SDS011;71973;52.018;5.810;2023-11-18T15:25:37;1.45;;;0.68;;
43883;SDS011;71973;52.018;5.810;2023-11-18T15:28:07;3.60;;;0.60;;
43883;SDS011;71973;52.018;5.810;2023-11-18T15:30:36;1.38;;;0.70;;
43883;SDS011;71973;52.018;5.810;2023-11-18T15:33:02;2.55;;;0.95;;
43883;SDS011;71973;52.018;5.810;2023-11-18T15:35:29;0.73;;;0.50;;
43883;SDS011;71973;52.018;5.810;2023-11-18T15:37:55;1.50;;;0.88;;
43883;SDS011;71973;52.018;5.810;2023-11-18T15:40:21;1.08;;;0.47;;
43883;SDS011;71973;52.018;5.810;2023-11-18T15:42:50;1.75;;;0.73;;
43883;SDS011;71973;52.018;5.810;2023-11-18T15:45:17;3.53;;;1.10;;
43883;SDS011;71973;52.018;5.810;2023-11-18T15:47:43;3.22;;;0.93;;